sensor_id;sensor_type;location;lat;lon;timestamp;temperature;humidity
46590;DHT22;32313;48.722;9.362;2023-12-07T00:00:29;-0.10;99.90
46590;DHT22;32313;48.722;9.362;2023-12-07T00:02:54;-0.10;99.90
46590;DHT22;32313;48.722;9.362;2023-12-07T00:05:20;-0.10;99.90
46590;DHT22;32313;48.722;9.362;2023-12-07T00:07:46;-0.10;99.90
46590;DHT22;32313;48.722;9.362;2023-12-07T00:10:11;-0.10;99.90
46590;DHT22;32313;48.722;9.362;2023-12-07T00:12:37;-0.20;99.90
46590;DHT22;32313;48.722;9.362;2023-12-07T00:15:03;-0.20;99.90
46590;DHT22;32313;48.722;9.362;2023-12-07T00:17:29;-0.20;99.90
46590;DHT22;32313;48.722;9.362;2023-12-07T00:19:55;-0.20;99.90
46590;DHT22;32313;48.722;9.362;2023-12-07T00:22:21;-0.10;99.90
46590;DHT22;32313;48.722;9.362;2023-12-07T00:24:46;-0.10;99.90
46590;DHT22;32313;48.722;9.362;2023-12-07T00:27:12;-0.10;99.90
46590;DHT22;32313;48.722;9.362;2023-12-07T00:29:38;-0.10;99.90
46590;DHT22;32313;48.722;9.362;2023-12-07T00:32:04;-0.10;99.90
46590;DHT22;32313;48.722;9.362;2023-12-07T00:34:30;-0.10;99.90
46590;DHT22;32313;48.722;9.362;2023-12-07T00:36:56;-0.10;99.90
46590;DHT22;32313;48.722;9.362;2023-12-07T00:39:21;0.00;99.90
46590;DHT22;32313;48.722;9.362;2023-12-07T00:41:47;0.00;99.90
46590;DHT22;32313;48.722;9.362;2023-12-07T00:44:16;0.00;99.90
46590;DHT22;32313;48.722;9.362;2023-12-07T00:46:41;0.00;99.90
46590;DHT22;32313;48.722;9.362;2023-12-07T00:49:07;0.00;99.90
46590;DHT22;32313;48.722;9.362;2023-12-07T00:51:33;0.00;99.90
46590;DHT22;32313;48.722;9.362;2023-12-07T00:53:58;-0.10;99.90
46590;DHT22;32313;48.722;9.362;2023-12-07T00:56:24;-0.10;99.90
46590;DHT22;32313;48.722;9.362;2023-12-07T00:58:50;-0.10;99.90
46590;DHT22;32313;48.722;9.362;2023-12-07T01:01:16;-0.10;99.90
46590;DHT22;32313;48.722;9.362;2023-12-07T01:03:41;-0.10;99.90
46590;DHT22;32313;48.722;9.362;2023-12-07T01:06:07;0.00;99.90
46590;DHT22;32313;48.722;9.362;2023-12-07T01:08:33;0.00;99.90
46590;DHT22;32313;48.722;9.362;2023-12-07T01:10:59;0.00;99.90
46590;DHT22;32313;48.722;9.362;2023-12-07T01:13:24;0.10;99.90
46590;DHT22;32313;48.722;9.362;2023-12-07T01:15:50;0.10;99.90
46590;DHT22;32313;48.722;9.362;2023-12-07T01:18:16;0.10;99.90
46590;DHT22;32313;48.722;9.362;2023-12-07T01:20:42;0.10;99.90
46590;DHT22;32313;48.722;9.362;2023-12-07T01:23:08;0.10;99.90
46590;DHT22;32313;48.722;9.362;2023-12-07T01:25:34;0.10;99.90
46590;DHT22;32313;48.722;9.362;2023-12-07T01:28:00;0.20;99.90
46590;DHT22;32313;48.722;9.362;2023-12-07T01:30:25;0.20;99.90
46590;DHT22;32313;48.722;9.362;2023-12-07T01:32:51;0.20;99.90
46590;DHT22;32313;48.722;9.362;2023-12-07T01:35:16;0.20;99.90
46590;DHT22;32313;48.722;9.362;2023-12-07T01:37:42;0.20;99.90
46590;DHT22;32313;48.722;9.362;2023-12-07T01:40:08;0.20;99.90
46590;DHT22;32313;48.722;9.362;2023-12-07T01:42:38;0.20;99.90
46590;DHT22;32313;48.722;9.362;2023-12-07T01:45:05;0.20;99.90
46590;DHT22;32313;48.722;9.362;2023-12-07T01:47:32;0.20;99.90
46590;DHT22;32313;48.722;9.362;2023-12-07T01:50:00;0.20;99.90
46590;DHT22;32313;48.722;9.362;2023-12-07T01:52:28;0.20;99.90
46590;DHT22;32313;48.722;9.362;2023-12-07T01:54:54;0.20;99.90
46590;DHT22;32313;48.722;9.362;2023-12-07T01:57:20;0.20;99.90
46590;DHT22;32313;48.722;9.362;2023-12-07T01:59:48;0.20;99.90
46590;DHT22;32313;48.722;9.362;2023-12-07T02:02:14;0.10;99.90
46590;DHT22;32313;48.722;9.362;2023-12-07T02:04:40;0.00;99.90
46590;DHT22;32313;48.722;9.362;2023-12-07T02:07:06;0.00;99.90
46590;DHT22;32313;48.722;9.362;2023-12-07T02:09:32;0.00;99.90
46590;DHT22;32313;48.722;9.362;2023-12-07T02:11:58;-0.10;99.90
46590;DHT22;32313;48.722;9.362;2023-12-07T02:14:23;-0.10;99.90
46590;DHT22;32313;48.722;9.362;2023-12-07T02:16:57;-0.20;99.90
46590;DHT22;32313;48.722;9.362;2023-12-07T02:19:56;-0.20;99.90
46590;DHT22;32313;48.722;9.362;2023-12-07T02:22:32;-0.10;99.90
46590;DHT22;32313;48.722;9.362;2023-12-07T02:25:07;-0.10;99.90
46590;DHT22;32313;48.722;9.362;2023-12-07T02:27:41;-0.10;99.90
46590;DHT22;32313;48.722;9.362;2023-12-07T02:30:09;-0.10;99.90
46590;DHT22;32313;48.722;9.362;2023-12-07T02:32:37;-0.10;99.90
46590;DHT22;32313;48.722;9.362;2023-12-07T02:35:03;-0.20;99.90
46590;DHT22;32313;48.722;9.362;2023-12-07T02:37:40;-0.20;99.90
46590;DHT22;32313;48.722;9.362;2023-12-07T02:40:07;-0.20;99.90
46590;DHT22;32313;48.722;9.362;2023-12-07T02:42:37;-0.30;99.90
46590;DHT22;32313;48.722;9.362;2023-12-07T02:45:05;-0.40;99.90
46590;DHT22;32313;48.722;9.362;2023-12-07T02:47:31;-0.40;99.90
46590;DHT22;32313;48.722;9.362;2023-12-07T02:49:56;-0.50;99.90
46590;DHT22;32313;48.722;9.362;2023-12-07T02:52:22;-0.50;99.90
46590;DHT22;32313;48.722;9.362;2023-12-07T02:54:48;-0.60;99.90
46590;DHT22;32313;48.722;9.362;2023-12-07T02:57:14;-0.60;99.90
46590;DHT22;32313;48.722;9.362;2023-12-07T02:59:40;-0.60;99.90
46590;DHT22;32313;48.722;9.362;2023-12-07T03:02:06;-0.60;99.90
46590;DHT22;32313;48.722;9.362;2023-12-07T03:04:32;-0.60;99.90
46590;DHT22;32313;48.722;9.362;2023-12-07T03:06:58;-0.70;99.90
46590;DHT22;32313;48.722;9.362;2023-12-07T03:09:24;-0.80;99.90
46590;DHT22;32313;48.722;9.362;2023-12-07T03:11:50;-0.90;99.90
46590;DHT22;32313;48.722;9.362;2023-12-07T03:14:16;-1.00;99.90
46590;DHT22;32313;48.722;9.362;2023-12-07T03:16:42;-1.00;99.90
46590;DHT22;32313;48.722;9.362;2023-12-07T03:19:07;-1.10;99.90
46590;DHT22;32313;48.722;9.362;2023-12-07T03:21:33;-1.20;99.90
46590;DHT22;32313;48.722;9.362;2023-12-07T03:23:59;-1.30;99.90
46590;DHT22;32313;48.722;9.362;2023-12-07T03:26:24;-1.40;99.90
46590;DHT22;32313;48.722;9.362;2023-12-07T03:28:50;-1.40;99.90
46590;DHT22;32313;48.722;9.362;2023-12-07T03:31:16;-1.40;99.90
46590;DHT22;32313;48.722;9.362;2023-12-07T03:33:42;-1.50;99.90
46590;DHT22;32313;48.722;9.362;2023-12-07T03:36:11;-1.50;99.90
46590;DHT22;32313;48.722;9.362;2023-12-07T03:38:37;-1.60;99.90
46590;DHT22;32313;48.722;9.362;2023-12-07T03:41:03;-1.70;99.90
46590;DHT22;32313;48.722;9.362;2023-12-07T03:43:29;-1.80;99.90
46590;DHT22;32313;48.722;9.362;2023-12-07T03:45:55;-1.80;99.90
46590;DHT22;32313;48.722;9.362;2023-12-07T03:48:20;-1.80;99.90
46590;DHT22;32313;48.722;9.362;2023-12-07T03:50:46;-1.90;99.90
46590;DHT22;32313;48.722;9.362;2023-12-07T03:53:12;-1.90;99.90
46590;DHT22;32313;48.722;9.362;2023-12-07T03:55:38;-2.00;99.90
46590;DHT22;32313;48.722;9.362;2023-12-07T03:58:04;-2.00;99.90
46590;DHT22;32313;48.722;9.362;2023-12-07T04:00:31;-2.10;99.90
46590;DHT22;32313;48.722;9.362;2023-12-07T04:02:57;-2.10;99.90
46590;DHT22;32313;48.722;9.362;2023-12-07T04:05:23;-2.10;99.90
46590;DHT22;32313;48.722;9.362;2023-12-07T04:07:49;-2.20;99.90
46590;DHT22;32313;48.722;9.362;2023-12-07T04:10:15;-2.20;99.90
46590;DHT22;32313;48.722;9.362;2023-12-07T04:12:40;-2.20;99.90
46590;DHT22;32313;48.722;9.362;2023-12-07T04:15:07;-2.20;99.90
46590;DHT22;32313;48.722;9.362;2023-12-07T04:17:32;-2.30;99.90
46590;DHT22;32313;48.722;9.362;2023-12-07T04:19:58;-2.30;99.90
46590;DHT22;32313;48.722;9.362;2023-12-07T04:22:24;-2.40;99.90
46590;DHT22;32313;48.722;9.362;2023-12-07T04:24:49;-2.40;99.90
46590;DHT22;32313;48.722;9.362;2023-12-07T04:27:15;-2.30;99.90
46590;DHT22;32313;48.722;9.362;2023-12-07T04:29:41;-2.20;99.90
46590;DHT22;32313;48.722;9.362;2023-12-07T04:32:07;-2.10;99.90
46590;DHT22;32313;48.722;9.362;2023-12-07T04:34:33;-2.00;99.90
46590;DHT22;32313;48.722;9.362;2023-12-07T04:36:59;-2.00;99.90
46590;DHT22;32313;48.722;9.362;2023-12-07T04:39:25;-2.00;99.90
46590;DHT22;32313;48.722;9.362;2023-12-07T04:41:50;-2.00;99.90
46590;DHT22;32313;48.722;9.362;2023-12-07T04:44:16;-1.90;99.90
46590;DHT22;32313;48.722;9.362;2023-12-07T04:46:42;-1.90;99.90
46590;DHT22;32313;48.722;9.362;2023-12-07T04:49:08;-1.90;99.90
46590;DHT22;32313;48.722;9.362;2023-12-07T04:51:34;-1.90;99.90
46590;DHT22;32313;48.722;9.362;2023-12-07T04:54:00;-1.90;99.90
46590;DHT22;32313;48.722;9.362;2023-12-07T04:56:26;-1.90;99.90
46590;DHT22;32313;48.722;9.362;2023-12-07T04:58:52;-1.80;99.90
46590;DHT22;32313;48.722;9.362;2023-12-07T05:01:18;-1.80;99.90
46590;DHT22;32313;48.722;9.362;2023-12-07T05:03:46;-1.80;99.90
46590;DHT22;32313;48.722;9.362;2023-12-07T05:06:12;-1.80;99.90
46590;DHT22;32313;48.722;9.362;2023-12-07T05:08:39;-1.70;99.90
46590;DHT22;32313;48.722;9.362;2023-12-07T05:11:05;-1.60;99.90
46590;DHT22;32313;48.722;9.362;2023-12-07T05:13:32;-1.60;99.90
46590;DHT22;32313;48.722;9.362;2023-12-07T05:15:59;-1.60;99.90
46590;DHT22;32313;48.722;9.362;2023-12-07T05:18:25;-1.60;99.90
46590;DHT22;32313;48.722;9.362;2023-12-07T05:20:51;-1.60;99.90
46590;DHT22;32313;48.722;9.362;2023-12-07T05:23:16;-1.70;99.90
46590;DHT22;32313;48.722;9.362;2023-12-07T05:25:43;-1.70;99.90
46590;DHT22;32313;48.722;9.362;2023-12-07T05:28:09;-1.90;99.90
46590;DHT22;32313;48.722;9.362;2023-12-07T05:30:36;-2.00;99.90
46590;DHT22;32313;48.722;9.362;2023-12-07T05:33:02;-2.10;99.90
46590;DHT22;32313;48.722;9.362;2023-12-07T05:35:27;-2.20;99.90
46590;DHT22;32313;48.722;9.362;2023-12-07T05:37:53;-2.30;99.90
46590;DHT22;32313;48.722;9.362;2023-12-07T05:40:19;-2.40;99.90
46590;DHT22;32313;48.722;9.362;2023-12-07T05:42:49;-2.40;99.90
46590;DHT22;32313;48.722;9.362;2023-12-07T05:45:15;-2.50;99.90
46590;DHT22;32313;48.722;9.362;2023-12-07T05:47:41;-2.60;99.90
46590;DHT22;32313;48.722;9.362;2023-12-07T05:50:08;-2.70;99.90
46590;DHT22;32313;48.722;9.362;2023-12-07T05:52:34;-2.80;99.90
46590;DHT22;32313;48.722;9.362;2023-12-07T05:54:59;-2.80;99.90
46590;DHT22;32313;48.722;9.362;2023-12-07T05:57:25;-2.90;99.90
46590;DHT22;32313;48.722;9.362;2023-12-07T05:59:51;-2.70;99.90
46590;DHT22;32313;48.722;9.362;2023-12-07T06:02:16;-2.80;99.90
46590;DHT22;32313;48.722;9.362;2023-12-07T06:04:42;-2.80;99.90
46590;DHT22;32313;48.722;9.362;2023-12-07T06:07:08;-2.80;99.90
46590;DHT22;32313;48.722;9.362;2023-12-07T06:09:33;-2.90;99.90
46590;DHT22;32313;48.722;9.362;2023-12-07T06:12:00;-2.90;99.90
46590;DHT22;32313;48.722;9.362;2023-12-07T06:14:25;-3.00;99.90
46590;DHT22;32313;48.722;9.362;2023-12-07T06:16:51;-3.00;99.90
46590;DHT22;32313;48.722;9.362;2023-12-07T06:19:17;-3.00;99.90
46590;DHT22;32313;48.722;9.362;2023-12-07T06:21:43;-3.10;99.90
46590;DHT22;32313;48.722;9.362;2023-12-07T06:24:09;-3.10;99.90
46590;DHT22;32313;48.722;9.362;2023-12-07T06:26:35;-3.10;99.90
46590;DHT22;32313;48.722;9.362;2023-12-07T06:29:01;-3.10;99.90
46590;DHT22;32313;48.722;9.362;2023-12-07T06:31:27;-3.10;99.90
46590;DHT22;32313;48.722;9.362;2023-12-07T06:33:53;-3.20;99.90
46590;DHT22;32313;48.722;9.362;2023-12-07T06:36:23;-3.20;99.90
46590;DHT22;32313;48.722;9.362;2023-12-07T06:38:49;-3.30;99.90
46590;DHT22;32313;48.722;9.362;2023-12-07T06:41:15;-3.30;99.90
46590;DHT22;32313;48.722;9.362;2023-12-07T06:43:41;-3.30;99.90
46590;DHT22;32313;48.722;9.362;2023-12-07T06:46:12;-3.30;99.90
46590;DHT22;32313;48.722;9.362;2023-12-07T06:48:38;-3.30;99.90
46590;DHT22;32313;48.722;9.362;2023-12-07T06:51:04;-3.40;99.90
46590;DHT22;32313;48.722;9.362;2023-12-07T06:53:30;-3.40;99.90
46590;DHT22;32313;48.722;9.362;2023-12-07T06:55:57;-3.40;99.90
46590;DHT22;32313;48.722;9.362;2023-12-07T06:58:23;-3.40;99.90
46590;DHT22;32313;48.722;9.362;2023-12-07T07:00:49;-3.40;99.90
46590;DHT22;32313;48.722;9.362;2023-12-07T07:03:15;-3.40;99.90
46590;DHT22;32313;48.722;9.362;2023-12-07T07:05:41;-3.40;99.90
46590;DHT22;32313;48.722;9.362;2023-12-07T07:08:07;-3.40;99.90
46590;DHT22;32313;48.722;9.362;2023-12-07T07:10:34;-3.40;99.90
46590;DHT22;32313;48.722;9.362;2023-12-07T07:13:03;-3.40;99.90
46590;DHT22;32313;48.722;9.362;2023-12-07T07:15:31;-3.40;99.90
46590;DHT22;32313;48.722;9.362;2023-12-07T07:17:57;-3.40;99.90
46590;DHT22;32313;48.722;9.362;2023-12-07T07:20:23;-3.40;99.90
46590;DHT22;32313;48.722;9.362;2023-12-07T07:22:48;-3.50;99.90
46590;DHT22;32313;48.722;9.362;2023-12-07T07:25:14;-3.40;99.90
46590;DHT22;32313;48.722;9.362;2023-12-07T07:27:42;-3.30;99.90
46590;DHT22;32313;48.722;9.362;2023-12-07T07:30:08;-3.30;99.90
46590;DHT22;32313;48.722;9.362;2023-12-07T07:32:34;-3.30;99.90
46590;DHT22;32313;48.722;9.362;2023-12-07T07:35:00;-3.30;99.90
46590;DHT22;32313;48.722;9.362;2023-12-07T07:37:25;-3.20;99.90
46590;DHT22;32313;48.722;9.362;2023-12-07T07:39:51;-3.30;99.90
46590;DHT22;32313;48.722;9.362;2023-12-07T07:42:17;-3.30;99.90
46590;DHT22;32313;48.722;9.362;2023-12-07T07:44:43;-3.20;99.90
46590;DHT22;32313;48.722;9.362;2023-12-07T07:47:08;-3.20;99.90
46590;DHT22;32313;48.722;9.362;2023-12-07T07:49:34;-3.10;99.90
46590;DHT22;32313;48.722;9.362;2023-12-07T07:52:00;-3.10;99.90
46590;DHT22;32313;48.722;9.362;2023-12-07T07:54:26;-3.10;99.90
46590;DHT22;32313;48.722;9.362;2023-12-07T07:56:52;-3.10;99.90
46590;DHT22;32313;48.722;9.362;2023-12-07T07:59:17;-2.90;99.90
46590;DHT22;32313;48.722;9.362;2023-12-07T08:01:43;-2.80;99.90
46590;DHT22;32313;48.722;9.362;2023-12-07T08:04:12;-2.80;99.90
46590;DHT22;32313;48.722;9.362;2023-12-07T08:06:38;-2.70;99.90
46590;DHT22;32313;48.722;9.362;2023-12-07T08:09:04;-2.70;99.90
46590;DHT22;32313;48.722;9.362;2023-12-07T08:11:29;-2.60;99.90
46590;DHT22;32313;48.722;9.362;2023-12-07T08:13:55;-2.50;99.90
46590;DHT22;32313;48.722;9.362;2023-12-07T08:16:21;-2.40;99.90
46590;DHT22;32313;48.722;9.362;2023-12-07T08:18:47;-2.40;99.90
46590;DHT22;32313;48.722;9.362;2023-12-07T08:21:22;-2.40;99.90
46590;DHT22;32313;48.722;9.362;2023-12-07T08:23:48;-2.30;99.90
46590;DHT22;32313;48.722;9.362;2023-12-07T08:26:14;-2.20;99.90
46590;DHT22;32313;48.722;9.362;2023-12-07T08:28:41;-2.20;99.90
46590;DHT22;32313;48.722;9.362;2023-12-07T08:31:07;-2.20;99.90
46590;DHT22;32313;48.722;9.362;2023-12-07T08:33:33;-2.10;99.90
46590;DHT22;32313;48.722;9.362;2023-12-07T08:36:03;-2.00;99.90
46590;DHT22;32313;48.722;9.362;2023-12-07T08:38:29;-1.90;99.90
46590;DHT22;32313;48.722;9.362;2023-12-07T08:40:54;-1.70;99.90
46590;DHT22;32313;48.722;9.362;2023-12-07T08:43:21;-1.20;99.90
46590;DHT22;32313;48.722;9.362;2023-12-07T08:45:51;-0.60;99.90
46590;DHT22;32313;48.722;9.362;2023-12-07T08:48:18;-0.10;99.90
46590;DHT22;32313;48.722;9.362;2023-12-07T08:50:43;0.40;99.90
46590;DHT22;32313;48.722;9.362;2023-12-07T08:53:09;0.90;99.90
46590;DHT22;32313;48.722;9.362;2023-12-07T08:55:34;0.90;99.90
46590;DHT22;32313;48.722;9.362;2023-12-07T08:58:00;0.40;99.90
46590;DHT22;32313;48.722;9.362;2023-12-07T09:00:28;0.00;99.90
46590;DHT22;32313;48.722;9.362;2023-12-07T09:02:54;-0.20;99.90
46590;DHT22;32313;48.722;9.362;2023-12-07T09:05:20;-0.30;99.90
46590;DHT22;32313;48.722;9.362;2023-12-07T09:07:45;0.00;99.90
46590;DHT22;32313;48.722;9.362;2023-12-07T09:10:11;0.60;99.90
46590;DHT22;32313;48.722;9.362;2023-12-07T09:12:37;0.90;99.90
46590;DHT22;32313;48.722;9.362;2023-12-07T09:15:04;1.00;99.90
46590;DHT22;32313;48.722;9.362;2023-12-07T09:17:29;1.40;99.90
46590;DHT22;32313;48.722;9.362;2023-12-07T09:19:55;1.40;99.90
46590;DHT22;32313;48.722;9.362;2023-12-07T09:22:21;1.10;99.90
46590;DHT22;32313;48.722;9.362;2023-12-07T09:24:47;1.50;99.90
46590;DHT22;32313;48.722;9.362;2023-12-07T09:27:16;2.10;99.90
46590;DHT22;32313;48.722;9.362;2023-12-07T09:29:41;2.60;99.90
46590;DHT22;32313;48.722;9.362;2023-12-07T09:32:07;2.90;99.90
46590;DHT22;32313;48.722;9.362;2023-12-07T09:34:33;3.00;99.90
46590;DHT22;32313;48.722;9.362;2023-12-07T09:37:09;3.20;99.90
46590;DHT22;32313;48.722;9.362;2023-12-07T09:39:35;3.70;99.90
46590;DHT22;32313;48.722;9.362;2023-12-07T09:42:01;4.00;99.90
46590;DHT22;32313;48.722;9.362;2023-12-07T09:44:27;4.30;99.90
46590;DHT22;32313;48.722;9.362;2023-12-07T09:46:54;4.40;99.90
46590;DHT22;32313;48.722;9.362;2023-12-07T09:49:20;4.50;99.90
46590;DHT22;32313;48.722;9.362;2023-12-07T09:51:46;4.80;99.90
46590;DHT22;32313;48.722;9.362;2023-12-07T09:54:13;5.10;99.90
46590;DHT22;32313;48.722;9.362;2023-12-07T09:56:39;5.60;99.90
46590;DHT22;32313;48.722;9.362;2023-12-07T09:59:06;5.70;99.90
46590;DHT22;32313;48.722;9.362;2023-12-07T10:01:32;6.00;99.90
46590;DHT22;32313;48.722;9.362;2023-12-07T10:04:20;6.20;99.90
46590;DHT22;32313;48.722;9.362;2023-12-07T10:06:46;6.50;99.90
46590;DHT22;32313;48.722;9.362;2023-12-07T10:09:13;6.70;99.90
46590;DHT22;32313;48.722;9.362;2023-12-07T10:11:40;6.10;99.90
46590;DHT22;32313;48.722;9.362;2023-12-07T10:14:06;5.00;99.90
46590;DHT22;32313;48.722;9.362;2023-12-07T10:16:37;4.20;99.90
46590;DHT22;32313;48.722;9.362;2023-12-07T10:19:16;4.20;99.90
46590;DHT22;32313;48.722;9.362;2023-12-07T10:21:44;4.50;99.90
46590;DHT22;32313;48.722;9.362;2023-12-07T10:24:11;5.30;99.90
46590;DHT22;32313;48.722;9.362;2023-12-07T10:26:40;5.80;99.90
46590;DHT22;32313;48.722;9.362;2023-12-07T10:29:05;6.30;99.90
46590;DHT22;32313;48.722;9.362;2023-12-07T10:31:32;6.90;99.90
46590;DHT22;32313;48.722;9.362;2023-12-07T10:33:59;7.40;99.90
46590;DHT22;32313;48.722;9.362;2023-12-07T10:36:25;7.70;99.90
46590;DHT22;32313;48.722;9.362;2023-12-07T10:38:52;8.10;99.90
46590;DHT22;32313;48.722;9.362;2023-12-07T10:41:19;8.30;99.90
46590;DHT22;32313;48.722;9.362;2023-12-07T10:44:07;8.50;99.90
46590;DHT22;32313;48.722;9.362;2023-12-07T10:46:33;8.30;99.90
46590;DHT22;32313;48.722;9.362;2023-12-07T10:49:08;8.60;99.90
46590;DHT22;32313;48.722;9.362;2023-12-07T10:51:42;8.60;99.90
46590;DHT22;32313;48.722;9.362;2023-12-07T10:54:15;8.80;99.90
46590;DHT22;32313;48.722;9.362;2023-12-07T10:56:46;9.00;99.90
46590;DHT22;32313;48.722;9.362;2023-12-07T10:59:14;9.30;99.90
46590;DHT22;32313;48.722;9.362;2023-12-07T11:01:40;9.50;99.90
46590;DHT22;32313;48.722;9.362;2023-12-07T11:04:13;9.60;99.90
46590;DHT22;32313;48.722;9.362;2023-12-07T11:06:40;9.50;99.90
46590;DHT22;32313;48.722;9.362;2023-12-07T11:09:09;9.30;99.90
46590;DHT22;32313;48.722;9.362;2023-12-07T11:14:09;9.30;99.90
46590;DHT22;32313;48.722;9.362;2023-12-07T11:16:41;9.80;99.90
46590;DHT22;32313;48.722;9.362;2023-12-07T11:21:58;10.30;99.90
46590;DHT22;32313;48.722;9.362;2023-12-07T11:24:25;10.50;99.90
46590;DHT22;32313;48.722;9.362;2023-12-07T11:26:54;10.80;99.90
46590;DHT22;32313;48.722;9.362;2023-12-07T11:29:21;10.80;99.90
46590;DHT22;32313;48.722;9.362;2023-12-07T11:31:49;10.80;99.90
46590;DHT22;32313;48.722;9.362;2023-12-07T11:34:40;10.90;99.90
46590;DHT22;32313;48.722;9.362;2023-12-07T11:37:07;10.90;99.90
46590;DHT22;32313;48.722;9.362;2023-12-07T11:39:37;10.90;99.90
46590;DHT22;32313;48.722;9.362;2023-12-07T11:42:12;11.10;99.90
46590;DHT22;32313;48.722;9.362;2023-12-07T11:44:41;11.30;99.90
46590;DHT22;32313;48.722;9.362;2023-12-07T11:47:07;11.50;99.90
46590;DHT22;32313;48.722;9.362;2023-12-07T11:49:34;11.60;99.90
46590;DHT22;32313;48.722;9.362;2023-12-07T11:52:00;11.70;99.90
46590;DHT22;32313;48.722;9.362;2023-12-07T11:54:27;11.80;99.90
46590;DHT22;32313;48.722;9.362;2023-12-07T11:56:56;11.80;99.90
46590;DHT22;32313;48.722;9.362;2023-12-07T11:59:23;12.00;99.90
46590;DHT22;32313;48.722;9.362;2023-12-07T12:01:52;12.20;99.90
46590;DHT22;32313;48.722;9.362;2023-12-07T12:04:18;12.40;99.90
46590;DHT22;32313;48.722;9.362;2023-12-07T12:06:46;12.70;99.90
46590;DHT22;32313;48.722;9.362;2023-12-07T12:09:15;12.50;99.90
46590;DHT22;32313;48.722;9.362;2023-12-07T12:11:45;12.20;99.90
46590;DHT22;32313;48.722;9.362;2023-12-07T12:14:15;12.20;99.90
46590;DHT22;32313;48.722;9.362;2023-12-07T12:16:46;12.00;99.90
46590;DHT22;32313;48.722;9.362;2023-12-07T12:19:12;12.20;99.90
46590;DHT22;32313;48.722;9.362;2023-12-07T12:21:42;11.90;99.90
46590;DHT22;32313;48.722;9.362;2023-12-07T12:24:10;11.20;99.90
46590;DHT22;32313;48.722;9.362;2023-12-07T12:26:39;10.50;99.90
46590;DHT22;32313;48.722;9.362;2023-12-07T12:29:06;10.10;99.90
46590;DHT22;32313;48.722;9.362;2023-12-07T12:31:35;9.70;99.90
46590;DHT22;32313;48.722;9.362;2023-12-07T12:34:02;9.70;99.90
46590;DHT22;32313;48.722;9.362;2023-12-07T12:36:27;9.40;99.90
46590;DHT22;32313;48.722;9.362;2023-12-07T12:38:55;9.40;99.90
46590;DHT22;32313;48.722;9.362;2023-12-07T12:41:24;9.30;99.90
46590;DHT22;32313;48.722;9.362;2023-12-07T12:43:51;9.40;99.90
46590;DHT22;32313;48.722;9.362;2023-12-07T12:46:17;9.50;99.90
46590;DHT22;32313;48.722;9.362;2023-12-07T12:48:55;9.40;99.90
46590;DHT22;32313;48.722;9.362;2023-12-07T12:51:24;9.20;99.90
46590;DHT22;32313;48.722;9.362;2023-12-07T12:53:51;9.20;99.90
46590;DHT22;32313;48.722;9.362;2023-12-07T12:56:19;9.00;99.90
46590;DHT22;32313;48.722;9.362;2023-12-07T12:58:46;8.40;99.90
46590;DHT22;32313;48.722;9.362;2023-12-07T13:01:11;8.30;99.90
46590;DHT22;32313;48.722;9.362;2023-12-07T13:03:37;8.70;99.90
46590;DHT22;32313;48.722;9.362;2023-12-07T13:06:03;9.20;99.90
46590;DHT22;32313;48.722;9.362;2023-12-07T13:08:29;9.60;99.90
46590;DHT22;32313;48.722;9.362;2023-12-07T13:10:56;10.10;99.90
46590;DHT22;32313;48.722;9.362;2023-12-07T13:13:21;10.30;99.90
46590;DHT22;32313;48.722;9.362;2023-12-07T13:15:47;10.20;99.90
46590;DHT22;32313;48.722;9.362;2023-12-07T13:18:12;10.30;99.90
46590;DHT22;32313;48.722;9.362;2023-12-07T13:20:39;10.60;99.90
46590;DHT22;32313;48.722;9.362;2023-12-07T13:23:04;10.40;99.90
46590;DHT22;32313;48.722;9.362;2023-12-07T13:25:30;9.90;99.60
46590;DHT22;32313;48.722;9.362;2023-12-07T13:27:56;9.30;99.30
46590;DHT22;32313;48.722;9.362;2023-12-07T13:30:21;9.10;99.90
46590;DHT22;32313;48.722;9.362;2023-12-07T13:32:47;8.70;99.80
46590;DHT22;32313;48.722;9.362;2023-12-07T13:35:13;8.20;99.70
46590;DHT22;32313;48.722;9.362;2023-12-07T13:37:39;8.10;99.80
46590;DHT22;32313;48.722;9.362;2023-12-07T13:40:05;8.10;99.90
46590;DHT22;32313;48.722;9.362;2023-12-07T13:42:36;7.90;98.80
46590;DHT22;32313;48.722;9.362;2023-12-07T13:45:02;7.90;99.80
46590;DHT22;32313;48.722;9.362;2023-12-07T13:47:29;8.00;98.80
46590;DHT22;32313;48.722;9.362;2023-12-07T13:49:58;8.10;98.50
46590;DHT22;32313;48.722;9.362;2023-12-07T13:52:24;8.10;98.90
46590;DHT22;32313;48.722;9.362;2023-12-07T13:54:50;7.80;98.90
46590;DHT22;32313;48.722;9.362;2023-12-07T13:57:16;7.60;99.50
46590;DHT22;32313;48.722;9.362;2023-12-07T13:59:42;7.30;98.60
46590;DHT22;32313;48.722;9.362;2023-12-07T14:02:08;7.10;98.60
46590;DHT22;32313;48.722;9.362;2023-12-07T14:04:34;7.00;99.80
46590;DHT22;32313;48.722;9.362;2023-12-07T14:07:10;7.20;98.70
46590;DHT22;32313;48.722;9.362;2023-12-07T14:09:37;7.20;99.40
46590;DHT22;32313;48.722;9.362;2023-12-07T14:12:03;7.20;99.30
46590;DHT22;32313;48.722;9.362;2023-12-07T14:14:35;7.20;99.90
46590;DHT22;32313;48.722;9.362;2023-12-07T14:17:01;7.30;99.50
46590;DHT22;32313;48.722;9.362;2023-12-07T14:19:27;7.40;99.20
46590;DHT22;32313;48.722;9.362;2023-12-07T14:21:54;7.80;96.60
46590;DHT22;32313;48.722;9.362;2023-12-07T14:24:20;7.70;98.20
46590;DHT22;32313;48.722;9.362;2023-12-07T14:26:46;7.30;97.40
46590;DHT22;32313;48.722;9.362;2023-12-07T14:29:12;6.80;98.60
46590;DHT22;32313;48.722;9.362;2023-12-07T14:31:49;6.30;98.50
46590;DHT22;32313;48.722;9.362;2023-12-07T14:34:15;5.80;99.80
46590;DHT22;32313;48.722;9.362;2023-12-07T14:36:41;5.40;99.50
46590;DHT22;32313;48.722;9.362;2023-12-07T14:39:09;5.10;99.30
46590;DHT22;32313;48.722;9.362;2023-12-07T14:41:35;4.70;99.10
46590;DHT22;32313;48.722;9.362;2023-12-07T14:44:02;4.40;99.90
46590;DHT22;32313;48.722;9.362;2023-12-07T14:46:28;4.10;99.90
46590;DHT22;32313;48.722;9.362;2023-12-07T14:48:53;3.90;99.90
46590;DHT22;32313;48.722;9.362;2023-12-07T14:51:19;3.70;99.90
46590;DHT22;32313;48.722;9.362;2023-12-07T14:53:48;3.50;99.90
46590;DHT22;32313;48.722;9.362;2023-12-07T14:56:14;3.30;99.90
46590;DHT22;32313;48.722;9.362;2023-12-07T14:58:40;3.10;99.90
46590;DHT22;32313;48.722;9.362;2023-12-07T15:01:06;2.90;99.90
46590;DHT22;32313;48.722;9.362;2023-12-07T15:03:34;2.80;99.90
46590;DHT22;32313;48.722;9.362;2023-12-07T15:06:00;2.50;99.90
46590;DHT22;32313;48.722;9.362;2023-12-07T15:08:27;2.30;99.90
46590;DHT22;32313;48.722;9.362;2023-12-07T15:10:52;2.20;99.90
46590;DHT22;32313;48.722;9.362;2023-12-07T15:13:20;2.00;99.90
46590;DHT22;32313;48.722;9.362;2023-12-07T15:15:46;1.80;99.90
46590;DHT22;32313;48.722;9.362;2023-12-07T15:18:11;1.70;99.90
46590;DHT22;32313;48.722;9.362;2023-12-07T15:20:37;1.50;99.90
46590;DHT22;32313;48.722;9.362;2023-12-07T15:23:03;1.40;99.90
46590;DHT22;32313;48.722;9.362;2023-12-07T15:25:29;1.20;99.90
46590;DHT22;32313;48.722;9.362;2023-12-07T15:27:56;1.10;99.90
46590;DHT22;32313;48.722;9.362;2023-12-07T15:30:43;0.90;99.90
46590;DHT22;32313;48.722;9.362;2023-12-07T15:33:09;0.80;99.90
46590;DHT22;32313;48.722;9.362;2023-12-07T15:35:35;0.70;99.90
46590;DHT22;32313;48.722;9.362;2023-12-07T15:38:01;0.70;99.90
46590;DHT22;32313;48.722;9.362;2023-12-07T15:40:27;0.60;99.90